createdAt,value
2017-06-04T00:00:42.204Z,0
2017-06-04T00:01:56.819Z,0
2017-06-04T00:02:42.528Z,0
2017-06-04T00:03:42.551Z,0
2017-06-04T00:04:42.582Z,0
2017-06-04T00:05:42.304Z,0
2017-06-04T00:06:42.629Z,0
2017-06-04T00:07:57.013Z,0
2017-06-04T00:09:42.708Z,0
2017-06-04T00:10:42.428Z,0
2017-06-04T00:11:42.760Z,0
2017-06-04T00:13:42.204Z,0
2017-06-04T00:14:42.536Z,0
2017-06-04T00:15:42.861Z,0
2017-06-04T00:16:42.887Z,0
2017-06-04T00:17:42.944Z,0
2017-06-04T00:18:42.941Z,0
2017-06-04T00:19:42.660Z,0
2017-06-04T00:20:42.689Z,0
2017-06-04T00:21:57.331Z,0
2017-06-04T00:22:42.789Z,0
2017-06-04T00:23:42.455Z,0
2017-06-04T00:24:57.710Z,0
2017-06-04T00:25:42.862Z,0
2017-06-04T00:26:42.840Z,0
2017-06-04T00:27:42.863Z,0
2017-06-04T00:28:43.193Z,0
2017-06-04T00:29:42.919Z,0
2017-06-04T00:30:43.256Z,0
2017-06-04T00:31:43.273Z,0
2017-06-04T00:32:43.313Z,0
2017-06-04T00:33:43.334Z,0
2017-06-04T00:34:43.058Z,0
2017-06-04T00:35:43.371Z,0
2017-06-04T00:36:43.408Z,0
2017-06-04T00:37:43.429Z,0
2017-06-04T00:39:12.682Z,0
2017-06-04T00:39:42.871Z,0
2017-06-04T00:40:57.824Z,0
2017-06-04T00:41:58.167Z,0
2017-06-04T00:42:43.552Z,0
2017-06-04T00:43:43.575Z,0
2017-06-04T00:44:43.605Z,0
2017-06-04T00:45:43.628Z,0
2017-06-04T00:46:43.654Z,0
2017-06-04T00:47:43.684Z,0
2017-06-04T00:48:43.702Z,0
2017-06-04T00:49:43.730Z,0
2017-06-04T00:50:43.771Z,0
2017-06-04T00:51:43.784Z,0
2017-06-04T00:52:43.502Z,0
2017-06-04T00:53:43.830Z,0
2017-06-04T00:54:43.588Z,0
2017-06-04T00:55:43.578Z,0
2017-06-04T00:56:58.577Z,0
2017-06-04T00:57:43.932Z,0
2017-06-04T00:58:43.962Z,0
2017-06-04T00:59:43.990Z,0
2017-06-04T01:00:43.706Z,0
2017-06-04T01:01:44.034Z,0
2017-06-04T01:02:58.681Z,0
2017-06-04T01:03:44.139Z,0
2017-06-04T01:04:44.113Z,0
2017-06-04T01:05:44.141Z,0
2017-06-04T01:06:58.778Z,0
2017-06-04T01:07:44.205Z,0
2017-06-04T01:08:58.829Z,0
2017-06-04T01:09:43.938Z,0
2017-06-04T01:10:43.960Z,0
2017-06-04T01:11:44.011Z,0
2017-06-04T01:12:58.930Z,0
2017-06-04T01:13:44.338Z,0
2017-06-04T01:14:44.363Z,0
2017-06-04T01:15:44.086Z,0
2017-06-04T01:16:44.419Z,0
2017-06-04T01:17:44.139Z,0
2017-06-04T01:18:44.466Z,0
2017-06-04T01:19:44.541Z,0
2017-06-04T01:20:44.523Z,0
2017-06-04T01:21:44.543Z,0
2017-06-04T01:22:59.184Z,0
2017-06-04T01:23:44.592Z,0
2017-06-04T01:24:59.236Z,0
2017-06-04T01:26:13.910Z,0
2017-06-04T01:26:44.670Z,0
2017-06-04T01:27:59.311Z,0
2017-06-04T01:28:44.721Z,0
2017-06-04T01:29:44.743Z,0
2017-06-04T01:30:59.394Z,0
2017-06-04T01:31:44.794Z,0
2017-06-04T01:33:44.848Z,0
2017-06-04T01:34:44.872Z,0
2017-06-04T01:35:44.594Z,0
2017-06-04T01:36:44.931Z,0
2017-06-04T01:37:44.947Z,0
2017-06-04T01:38:44.975Z,0
2017-06-04T01:39:44.695Z,0
2017-06-04T01:40:59.643Z,0
2017-06-04T01:41:45.053Z,0
2017-06-04T01:42:45.071Z,0
2017-06-04T01:43:45.104Z,0
2017-06-04T01:44:45.127Z,0
2017-06-04T01:46:45.175Z,0
2017-06-04T01:47:45.198Z,0
2017-06-04T01:48:45.277Z,0
2017-06-04T01:49:44.951Z,0
2017-06-04T01:51:45.301Z,0
2017-06-04T01:52:45.326Z,0
2017-06-04T01:53:59.967Z,0
2017-06-04T01:54:45.381Z,0
2017-06-04T01:55:45.408Z,0
2017-06-04T01:56:45.428Z,0
2017-06-04T01:57:45.451Z,0
2017-06-04T01:58:45.176Z,0
2017-06-04T02:00:00.119Z,0
2017-06-04T02:00:45.528Z,0
2017-06-04T02:01:45.556Z,0
2017-06-04T02:03:45.301Z,0
2017-06-04T02:05:45.656Z,0
2017-06-04T02:06:45.677Z,0
2017-06-04T02:07:45.096Z,0
2017-06-04T02:08:45.473Z,0
2017-06-04T02:10:00.374Z,0
2017-06-04T02:11:00.095Z,0
2017-06-04T02:11:45.502Z,0
2017-06-04T02:12:45.528Z,0
2017-06-04T02:13:45.559Z,0
2017-06-04T02:14:45.583Z,0
2017-06-04T02:16:00.524Z,0
2017-06-04T02:17:00.246Z,0
2017-06-04T02:17:45.959Z,0
2017-06-04T02:18:45.684Z,0
2017-06-04T02:19:46.007Z,0
2017-06-04T02:20:46.035Z,0
2017-06-04T02:21:46.058Z,0
2017-06-04T02:22:46.135Z,0
2017-06-04T02:23:46.111Z,0
2017-06-04T02:24:45.830Z,0
2017-06-04T02:25:45.856Z,0
2017-06-04T02:26:45.880Z,0
2017-06-04T02:28:00.827Z,0
2017-06-04T02:29:15.471Z,0
2017-06-04T02:29:46.264Z,0
2017-06-04T02:30:46.292Z,0
2017-06-04T02:32:00.934Z,0
2017-06-04T02:32:46.033Z,0
2017-06-04T02:33:46.366Z,0
2017-06-04T02:34:46.085Z,0
2017-06-04T02:35:46.424Z,0
2017-06-04T02:36:46.442Z,0
2017-06-04T02:37:46.767Z,0
2017-06-04T02:38:46.501Z,0
2017-06-04T02:39:46.211Z,0
2017-06-04T02:40:46.543Z,0
2017-06-04T02:42:01.182Z,0
2017-06-04T02:42:46.590Z,0
2017-06-04T02:44:01.235Z,0
2017-06-04T02:45:01.259Z,0
2017-06-04T02:45:46.666Z,0
2017-06-04T02:47:01.358Z,0
2017-06-04T02:48:01.333Z,0
2017-06-04T02:48:46.135Z,0
2017-06-04T02:50:46.794Z,0
2017-06-04T02:51:46.820Z,0
2017-06-04T02:53:46.870Z,0
2017-06-04T02:54:46.586Z,0
2017-06-04T02:56:01.592Z,0
2017-06-04T02:56:46.946Z,0
2017-06-04T02:58:01.585Z,0
2017-06-04T02:59:01.617Z,0
2017-06-04T03:00:16.255Z,0
2017-06-04T03:01:01.360Z,0
2017-06-04T03:01:47.071Z,0
2017-06-04T03:03:01.714Z,0
2017-06-04T03:03:47.119Z,5
2017-06-04T03:04:47.144Z,5
2017-06-04T03:08:47.245Z,5
2017-06-04T03:10:01.899Z,5
2017-06-04T03:11:01.915Z,5
2017-06-04T03:11:47.339Z,5
2017-06-04T03:13:01.666Z,5
2017-06-04T03:13:47.070Z,5
2017-06-04T03:15:16.635Z,5
2017-06-04T03:16:16.658Z,5
2017-06-04T03:16:47.450Z,5
2017-06-04T03:17:47.474Z,10
2017-06-04T03:18:47.496Z,10
2017-06-04T03:19:47.522Z,10
2017-06-04T03:21:47.574Z,10
2017-06-04T03:22:47.599Z,10
2017-06-04T03:23:47.623Z,10
2017-06-04T03:24:47.653Z,10
2017-06-04T03:25:47.375Z,10
2017-06-04T03:26:47.397Z,10
2017-06-04T03:28:02.345Z,10
2017-06-04T03:29:02.373Z,10
2017-06-04T03:30:02.399Z,10
2017-06-04T03:30:47.805Z,10
2017-06-04T03:32:02.446Z,10
2017-06-04T03:32:47.856Z,10
2017-06-04T03:34:02.193Z,10
2017-06-04T03:35:02.521Z,10
2017-06-04T03:36:02.546Z,10
2017-06-04T03:37:47.725Z,10
2017-06-04T03:38:48.004Z,10
2017-06-04T03:39:48.029Z,10
2017-06-04T03:40:48.059Z,10
2017-06-04T03:41:48.082Z,10
2017-06-04T03:42:48.105Z,10
2017-06-04T03:43:48.129Z,10
2017-06-04T03:45:02.771Z,10
2017-06-04T03:45:48.184Z,10
2017-06-04T03:47:02.831Z,15
2017-06-04T03:47:48.233Z,15
2017-06-04T03:48:47.951Z,15
2017-06-04T03:50:02.597Z,15
2017-06-04T03:51:02.929Z,15
2017-06-04T03:51:48.335Z,15
2017-06-04T03:52:48.358Z,15
2017-06-04T03:53:48.425Z,15
2017-06-04T03:54:48.412Z,15
2017-06-04T03:55:48.432Z,15
2017-06-04T03:56:48.462Z,15
2017-06-04T03:57:48.180Z,15
2017-06-04T03:59:02.824Z,15
2017-06-04T04:00:03.152Z,15
2017-06-04T04:00:48.559Z,20
2017-06-04T04:01:48.589Z,20
2017-06-04T04:02:48.612Z,20
2017-06-04T04:03:48.332Z,20
2017-06-04T04:05:03.281Z,20
2017-06-04T04:06:03.002Z,20
2017-06-04T04:07:48.741Z,20
2017-06-04T04:08:48.767Z,20
2017-06-04T04:09:48.233Z,20
2017-06-04T04:11:03.437Z,25
2017-06-04T04:11:48.842Z,25
2017-06-04T04:12:48.868Z,25
2017-06-04T04:13:48.889Z,25
2017-06-04T04:14:48.919Z,25
2017-06-04T04:15:48.940Z,25
2017-06-04T04:16:48.966Z,25
2017-06-04T04:18:03.606Z,25
2017-06-04T04:18:49.016Z,25
2017-06-04T04:19:49.042Z,25
2017-06-04T04:20:49.067Z,25
2017-06-04T04:22:03.406Z,25
2017-06-04T04:23:03.735Z,25
2017-06-04T04:23:48.838Z,25
2017-06-04T04:25:49.191Z,30
2017-06-04T04:26:49.223Z,30
2017-06-04T04:28:48.963Z,30
2017-06-04T04:29:49.293Z,30
2017-06-04T04:30:49.324Z,30
2017-06-04T04:32:03.962Z,35
2017-06-04T04:32:49.369Z,35
2017-06-04T04:33:49.402Z,35
2017-06-04T04:34:49.433Z,35
2017-06-04T04:36:04.066Z,35
2017-06-04T04:36:49.170Z,40
2017-06-04T04:38:04.120Z,40
2017-06-04T04:38:49.522Z,40
2017-06-04T04:39:49.246Z,40
2017-06-04T04:40:49.272Z,40
2017-06-04T04:41:49.600Z,40
2017-06-04T04:42:49.328Z,40
2017-06-04T04:43:49.348Z,35
2017-06-04T04:45:03.997Z,35
2017-06-04T04:46:04.020Z,30
2017-06-04T04:47:04.046Z,30
2017-06-04T04:48:04.120Z,30
2017-06-04T04:48:49.474Z,30
2017-06-04T04:49:49.499Z,30
2017-06-04T04:50:49.832Z,30
2017-06-04T04:52:04.171Z,25
2017-06-04T04:53:04.195Z,25
2017-06-04T04:53:49.905Z,25
2017-06-04T04:54:49.980Z,25
2017-06-04T04:55:49.956Z,25
2017-06-04T04:57:50.011Z,25
2017-06-04T04:58:50.035Z,25
2017-06-04T04:59:50.055Z,25
2017-06-04T05:00:50.085Z,25
2017-06-04T05:01:50.108Z,25
2017-06-04T05:02:50.134Z,25
2017-06-04T05:03:49.854Z,25
2017-06-04T05:05:19.423Z,25
2017-06-04T05:05:50.213Z,25
2017-06-04T05:07:19.472Z,25
2017-06-04T05:07:50.261Z,25
2017-06-04T05:09:04.602Z,25
2017-06-04T05:10:50.337Z,25
2017-06-04T05:11:50.110Z,25
2017-06-04T05:12:50.387Z,25
2017-06-04T05:13:50.111Z,30
2017-06-04T05:14:50.442Z,30
2017-06-04T05:15:50.466Z,30
2017-06-04T05:16:50.496Z,30
2017-06-04T05:17:50.213Z,30
2017-06-04T05:19:05.161Z,30
2017-06-04T05:19:50.568Z,30
2017-06-04T05:21:05.212Z,35
2017-06-04T05:21:50.619Z,35
2017-06-04T05:23:05.262Z,35
2017-06-04T05:23:50.674Z,35
2017-06-04T05:24:50.698Z,35
2017-06-04T05:26:05.034Z,40
2017-06-04T05:26:50.443Z,40
2017-06-04T05:27:50.771Z,40
2017-06-04T05:28:50.797Z,40
2017-06-04T05:29:50.528Z,35
2017-06-04T05:30:50.853Z,35
2017-06-04T05:31:50.875Z,35
2017-06-04T05:32:50.902Z,40
2017-06-04T05:33:50.631Z,40
2017-06-04T05:34:50.951Z,40
2017-06-04T05:36:05.593Z,40
2017-06-04T05:36:51.001Z,40
2017-06-04T05:37:51.025Z,35
2017-06-04T05:39:20.288Z,35
2017-06-04T05:39:51.077Z,35
2017-06-04T05:40:50.800Z,35
2017-06-04T05:42:05.744Z,35
2017-06-04T05:43:05.770Z,35
2017-06-04T05:43:51.182Z,35
2017-06-04T05:44:51.204Z,35
2017-06-04T05:45:51.233Z,35
2017-06-04T05:47:05.878Z,35
2017-06-04T05:47:51.280Z,35
2017-06-04T05:49:05.624Z,35
2017-06-04T05:49:51.333Z,35
2017-06-04T05:50:51.360Z,35
2017-06-04T05:51:50.780Z,40
2017-06-04T05:52:51.419Z,40
2017-06-04T05:53:51.438Z,40
2017-06-04T05:55:06.077Z,40
2017-06-04T05:55:51.496Z,40
2017-06-04T05:56:51.216Z,40
2017-06-04T05:58:06.155Z,45
2017-06-04T05:58:51.265Z,45
2017-06-04T06:00:05.902Z,45
2017-06-04T06:00:51.617Z,50
2017-06-04T06:01:51.691Z,50
2017-06-04T06:02:51.368Z,50
2017-06-04T06:03:51.698Z,50
2017-06-04T06:04:51.716Z,50
2017-06-04T06:06:06.362Z,50
2017-06-04T06:06:51.771Z,50
2017-06-04T06:07:51.798Z,50
2017-06-04T06:08:51.520Z,50
2017-06-04T06:09:51.845Z,50
2017-06-04T06:11:06.488Z,50
2017-06-04T06:11:51.347Z,50
2017-06-04T06:13:06.543Z,50
2017-06-04T06:14:06.567Z,50
2017-06-04T06:14:51.978Z,50
2017-06-04T06:16:52.032Z,50
2017-06-04T06:17:51.785Z,50
2017-06-04T06:18:52.077Z,50
2017-06-04T06:20:06.724Z,50
2017-06-04T06:21:06.448Z,50
2017-06-04T06:21:52.155Z,50
2017-06-04T06:22:51.880Z,55
2017-06-04T06:23:51.909Z,55
2017-06-04T06:24:51.932Z,55
2017-06-04T06:25:51.954Z,55
2017-06-04T06:27:06.903Z,55
2017-06-04T06:28:06.929Z,50
2017-06-04T06:29:52.058Z,50
2017-06-04T06:30:52.085Z,50
2017-06-04T06:34:52.491Z,40
2017-06-04T06:36:07.135Z,40
2017-06-04T06:36:52.241Z,40
2017-06-04T06:37:52.565Z,40
2017-06-04T06:38:52.594Z,40
2017-06-04T06:39:52.619Z,40
2017-06-04T06:41:07.262Z,45
2017-06-04T06:42:21.905Z,45
2017-06-04T06:42:52.696Z,45
2017-06-04T06:43:52.720Z,45
2017-06-04T06:45:07.365Z,45
2017-06-04T06:45:52.773Z,45
2017-06-04T06:46:52.494Z,45
2017-06-04T06:47:52.823Z,50
2017-06-04T06:48:52.850Z,50
2017-06-04T06:50:52.903Z,50
2017-06-04T06:52:07.245Z,50
2017-06-04T06:53:06.991Z,50
2017-06-04T06:53:52.676Z,50
2017-06-04T06:54:53.010Z,50
2017-06-04T06:55:53.038Z,45
2017-06-04T06:57:07.677Z,45
2017-06-04T06:58:22.317Z,45
2017-06-04T06:59:22.341Z,45
2017-06-04T06:59:53.174Z,45
2017-06-04T07:01:07.775Z,45
2017-06-04T07:01:53.186Z,45
2017-06-04T07:02:53.209Z,50
2017-06-04T07:03:53.240Z,45
2017-06-04T07:05:52.984Z,45
2017-06-04T07:06:53.013Z,50
2017-06-04T07:07:53.335Z,50
2017-06-04T07:08:53.365Z,50
2017-06-04T07:09:53.440Z,45
2017-06-04T07:10:53.421Z,45
2017-06-04T07:11:53.444Z,40
2017-06-04T07:13:08.087Z,35
2017-06-04T07:14:07.503Z,35
2017-06-04T07:14:53.518Z,35
2017-06-04T07:15:53.256Z,35
2017-06-04T07:17:08.187Z,35
2017-06-04T07:17:53.596Z,35
2017-06-04T07:18:53.631Z,35
2017-06-04T07:19:53.045Z,40
2017-06-04T07:20:53.672Z,40
2017-06-04T07:21:53.394Z,40
2017-06-04T07:22:53.117Z,45
2017-06-04T07:23:53.752Z,50
2017-06-04T07:25:08.443Z,50
2017-06-04T07:25:53.528Z,55
2017-06-04T07:26:53.527Z,55
2017-06-04T07:28:08.469Z,60
2017-06-04T07:28:53.581Z,60
2017-06-04T07:29:53.905Z,60
2017-06-04T07:30:53.625Z,60
2017-06-04T07:31:53.954Z,65
2017-06-04T07:33:54.009Z,65
2017-06-04T07:34:53.730Z,65
2017-06-04T07:35:54.058Z,65
2017-06-04T07:36:54.090Z,60
2017-06-04T07:37:54.119Z,60
2017-06-04T07:38:54.134Z,60
2017-06-04T07:39:54.167Z,60
2017-06-04T07:40:54.199Z,60
2017-06-04T07:42:08.532Z,65
2017-06-04T07:42:54.238Z,65
2017-06-04T07:43:54.275Z,70
2017-06-04T07:44:54.290Z,70
2017-06-04T07:46:08.631Z,70
2017-06-04T07:46:54.040Z,70
2017-06-04T07:48:08.987Z,70
2017-06-04T07:48:54.441Z,70
2017-06-04T07:49:54.418Z,70
2017-06-04T07:50:54.450Z,70
2017-06-04T07:51:53.865Z,70
2017-06-04T07:52:54.194Z,70
2017-06-04T07:53:54.523Z,75
2017-06-04T07:54:54.597Z,70
2017-06-04T07:55:53.665Z,75
2017-06-04T07:56:54.293Z,75
2017-06-04T07:58:09.243Z,75
2017-06-04T07:58:54.650Z,75
2017-06-04T07:59:54.070Z,75
2017-06-04T08:00:54.097Z,80
2017-06-04T08:01:54.786Z,80
2017-06-04T08:02:54.751Z,80
2017-06-04T08:03:54.477Z,80
2017-06-04T08:04:54.810Z,80
2017-06-04T08:05:54.831Z,85
2017-06-04T08:06:54.551Z,85
2017-06-04T08:07:54.582Z,80
2017-06-04T08:08:54.609Z,70
2017-06-04T08:09:54.627Z,65
2017-06-04T08:10:54.661Z,55
2017-06-04T08:11:54.984Z,50
2017-06-04T08:13:09.325Z,35
2017-06-04T08:13:55.036Z,30
2017-06-04T08:14:54.759Z,30
2017-06-04T08:15:55.088Z,35
2017-06-04T08:16:55.114Z,40
2017-06-04T08:17:55.136Z,50
2017-06-04T08:18:54.863Z,60
2017-06-04T08:20:09.808Z,60
2017-06-04T08:20:55.215Z,60
2017-06-04T08:22:54.970Z,75
2017-06-04T08:23:54.986Z,75
2017-06-04T08:24:55.012Z,75
2017-06-04T08:26:55.066Z,75
2017-06-04T08:27:55.094Z,85
2017-06-04T08:28:55.113Z,80
2017-06-04T08:29:55.445Z,85
2017-06-04T08:31:10.086Z,95
2017-06-04T08:31:55.547Z,100
2017-06-04T08:33:10.138Z,105
2017-06-04T08:33:54.942Z,110
2017-06-04T08:35:09.887Z,115
2017-06-04T08:36:10.214Z,120
2017-06-04T08:37:55.646Z,115
2017-06-04T08:38:55.674Z,115
2017-06-04T08:39:55.708Z,110
2017-06-04T08:41:55.448Z,110
2017-06-04T08:42:55.778Z,110
2017-06-04T08:44:10.115Z,120
2017-06-04T08:44:55.825Z,125
2017-06-04T08:45:55.855Z,135
2017-06-04T08:46:55.579Z,140
2017-06-04T08:47:55.900Z,150
2017-06-04T08:48:55.929Z,155
2017-06-04T08:49:55.952Z,155
2017-06-04T08:50:55.986Z,160
2017-06-04T08:52:10.322Z,160
2017-06-04T08:53:55.754Z,160
2017-06-04T08:54:56.110Z,160
2017-06-04T08:55:55.807Z,160
2017-06-04T08:57:56.159Z,160
2017-06-04T08:58:56.187Z,160
2017-06-04T08:59:56.210Z,165
2017-06-04T09:01:10.549Z,160
2017-06-04T09:01:55.956Z,160
2017-06-04T09:03:10.902Z,165
2017-06-04T09:04:10.928Z,155
2017-06-04T09:04:56.034Z,150
2017-06-04T09:05:56.365Z,140
2017-06-04T09:06:56.084Z,120
2017-06-04T09:08:56.441Z,105
2017-06-04T09:09:56.162Z,100
2017-06-04T09:11:56.214Z,90
2017-06-04T09:12:56.542Z,80
2017-06-04T09:14:56.593Z,95
2017-06-04T09:15:56.625Z,95
2017-06-04T09:17:11.264Z,95
2017-06-04T09:17:56.670Z,100
2017-06-04T09:18:56.705Z,105
2017-06-04T09:19:56.729Z,110
2017-06-04T09:20:56.459Z,110
2017-06-04T09:21:56.796Z,110
2017-06-04T09:23:11.416Z,120
2017-06-04T09:23:56.828Z,120
2017-06-04T09:24:56.854Z,120
2017-06-04T09:25:56.877Z,115
2017-06-04T09:27:56.928Z,115
2017-06-04T09:28:57.005Z,95
2017-06-04T09:30:57.007Z,65
2017-06-04T09:31:57.036Z,60
2017-06-04T09:33:11.673Z,50
2017-06-04T09:34:11.698Z,40
2017-06-04T09:34:57.108Z,35
2017-06-04T09:35:56.833Z,25
2017-06-04T09:36:57.160Z,20
2017-06-04T09:38:11.804Z,20
2017-06-04T09:38:57.211Z,15
2017-06-04T09:39:57.267Z,15
2017-06-04T09:40:57.262Z,20
2017-06-04T09:41:57.285Z,25
2017-06-04T09:42:57.310Z,30
2017-06-04T09:43:57.036Z,30
2017-06-04T09:44:57.363Z,30
2017-06-04T09:45:57.389Z,30
2017-06-04T09:46:57.413Z,35
2017-06-04T09:47:57.437Z,35
2017-06-04T09:48:57.469Z,35
2017-06-04T09:49:57.186Z,40
2017-06-04T09:51:11.832Z,35
2017-06-04T09:51:57.544Z,40
2017-06-04T09:52:57.563Z,40
2017-06-04T09:55:12.230Z,45
2017-06-04T09:55:57.338Z,45
2017-06-04T09:56:57.672Z,45
2017-06-04T09:57:57.690Z,40
2017-06-04T09:58:57.713Z,40
2017-06-04T09:59:57.739Z,35
2017-06-04T10:00:57.462Z,35
2017-06-04T10:01:57.186Z,25
2017-06-04T10:03:12.434Z,25
2017-06-04T10:03:57.846Z,20
2017-06-04T10:05:12.485Z,20
2017-06-04T10:05:57.892Z,15
2017-06-04T10:06:57.924Z,15
2017-06-04T10:07:57.641Z,15
2017-06-04T10:08:57.967Z,15
2017-06-04T10:09:57.990Z,15
2017-06-04T10:11:12.634Z,20
2017-06-04T10:11:57.746Z,20
2017-06-04T10:13:57.838Z,30
2017-06-04T10:14:57.816Z,40
2017-06-04T10:15:57.889Z,50
2017-06-04T10:17:57.887Z,50
2017-06-04T10:18:58.217Z,45
2017-06-04T10:20:12.861Z,30
2017-06-04T10:20:57.965Z,30
2017-06-04T10:21:58.290Z,35
2017-06-04T10:23:27.552Z,45
2017-06-04T10:24:27.272Z,60
2017-06-04T10:24:58.368Z,60
2017-06-04T10:25:58.394Z,60
2017-06-04T10:27:13.032Z,80
2017-06-04T10:27:58.441Z,90
2017-06-04T10:29:13.091Z,100
2017-06-04T10:29:58.185Z,100
2017-06-04T10:30:58.517Z,95
2017-06-04T10:31:58.538Z,80
2017-06-04T10:32:58.263Z,75
2017-06-04T10:33:58.289Z,75
2017-06-04T10:34:58.616Z,75
2017-06-04T10:36:13.258Z,75
2017-06-04T10:36:58.666Z,80
2017-06-04T10:37:58.392Z,80
2017-06-04T10:39:27.951Z,85
2017-06-04T10:40:27.975Z,90
2017-06-04T10:40:58.467Z,95
2017-06-04T10:41:58.183Z,100
2017-06-04T10:43:13.431Z,120
2017-06-04T10:43:58.841Z,120
2017-06-04T10:44:58.864Z,125
2017-06-04T10:45:58.891Z,120
2017-06-04T10:46:58.923Z,110
2017-06-04T10:48:58.967Z,90
2017-06-04T10:50:13.611Z,105
2017-06-04T10:50:59.017Z,100
2017-06-04T10:51:59.045Z,100
2017-06-04T10:52:59.069Z,105
2017-06-04T10:54:13.102Z,95
2017-06-04T10:55:13.738Z,90
2017-06-04T10:56:13.762Z,80
2017-06-04T10:56:59.166Z,75
2017-06-04T10:58:13.811Z,90
2017-06-04T10:58:59.219Z,95
2017-06-04T10:59:58.940Z,100
2017-06-04T11:00:59.419Z,95
2017-06-04T11:01:59.298Z,100
2017-06-04T11:03:59.342Z,105
2017-06-04T11:04:59.366Z,85
2017-06-04T11:05:59.398Z,85
2017-06-04T11:06:59.418Z,85
2017-06-04T11:07:59.445Z,90
2017-06-04T11:09:28.402Z,115
2017-06-04T11:09:59.191Z,115
2017-06-04T11:10:59.524Z,115
2017-06-04T11:11:59.543Z,120
2017-06-04T11:12:59.572Z,130
2017-06-04T11:13:59.598Z,115
2017-06-04T11:14:59.315Z,125
2017-06-04T11:15:59.651Z,135
2017-06-04T11:16:59.365Z,160
2017-06-04T11:17:59.695Z,185
2017-06-04T11:19:59.442Z,165
2017-06-04T11:20:59.770Z,180
2017-06-04T11:21:59.494Z,175
2017-06-04T11:22:59.217Z,185
2017-06-04T11:23:59.548Z,170
2017-06-04T11:24:59.568Z,180
2017-06-04T11:26:28.829Z,150
2017-06-04T11:27:29.157Z,130
2017-06-04T11:27:59.952Z,140
2017-06-04T11:29:14.289Z,160
2017-06-04T11:30:14.632Z,160
2017-06-04T11:31:00.022Z,160
2017-06-04T11:31:59.745Z,155
2017-06-04T11:33:00.073Z,140
2017-06-04T11:33:59.800Z,145
2017-06-04T11:35:14.749Z,160
2017-06-04T11:36:00.155Z,165
2017-06-04T11:38:00.204Z,140
2017-06-04T11:39:00.231Z,150
2017-06-04T11:40:14.870Z,135
2017-06-04T11:41:00.280Z,135
2017-06-04T11:42:00.304Z,125
2017-06-04T11:43:14.983Z,115
2017-06-04T11:44:00.356Z,110
2017-06-04T11:45:00.076Z,110
2017-06-04T11:47:00.431Z,90
2017-06-04T11:48:00.455Z,90
2017-06-04T11:49:00.482Z,85
2017-06-04T11:50:00.511Z,80
2017-06-04T11:51:00.532Z,90
2017-06-04T11:52:00.613Z,95
2017-06-04T11:53:00.604Z,100
2017-06-04T11:54:00.628Z,105
2017-06-04T11:55:00.634Z,95
2017-06-04T11:56:15.304Z,80
2017-06-04T11:57:00.687Z,75
2017-06-04T11:58:00.711Z,65
2017-06-04T11:59:29.973Z,60
2017-06-04T12:00:15.382Z,70
2017-06-04T12:01:00.791Z,75
2017-06-04T12:02:15.431Z,65
2017-06-04T12:03:00.842Z,65
2017-06-04T12:04:00.869Z,60
2017-06-04T12:05:00.892Z,50
2017-06-04T12:06:00.918Z,45
2017-06-04T12:07:00.939Z,50
2017-06-04T12:08:00.661Z,45
2017-06-04T12:09:00.992Z,35
2017-06-04T12:10:00.711Z,35
2017-06-04T12:11:01.049Z,40
2017-06-04T12:12:01.365Z,45
2017-06-04T12:13:01.099Z,55
2017-06-04T12:14:01.144Z,60
2017-06-04T12:15:00.839Z,90
2017-06-04T12:17:00.889Z,110
2017-06-04T12:18:15.833Z,115
2017-06-04T12:19:00.938Z,110
2017-06-04T12:20:01.267Z,125
2017-06-04T12:21:15.907Z,160
2017-06-04T12:22:01.317Z,160
2017-06-04T12:24:15.989Z,115
2017-06-04T12:25:01.397Z,105
2017-06-04T12:26:01.116Z,105
2017-06-04T12:27:01.443Z,115
2017-06-04T12:28:16.085Z,140
2017-06-04T12:29:01.496Z,160
2017-06-04T12:30:01.520Z,185
2017-06-04T12:31:01.547Z,195
2017-06-04T12:32:16.188Z,210
2017-06-04T12:34:01.335Z,225
2017-06-04T12:35:01.341Z,215
2017-06-04T12:36:01.671Z,200
2017-06-04T12:37:01.702Z,195
2017-06-04T12:38:01.718Z,195
2017-06-04T12:39:01.748Z,185
2017-06-04T12:40:01.770Z,210
2017-06-04T12:41:16.120Z,210
2017-06-04T12:42:01.824Z,205
2017-06-04T12:43:01.549Z,210
2017-06-04T12:44:31.110Z,210
2017-06-04T12:45:01.930Z,200
2017-06-04T12:46:01.631Z,200
2017-06-04T12:47:01.950Z,185
2017-06-04T12:48:01.973Z,180
2017-06-04T12:49:02.004Z,180
2017-06-04T12:50:01.726Z,185
2017-06-04T12:51:01.748Z,185
2017-06-04T12:53:01.800Z,165
2017-06-04T12:54:02.128Z,155
2017-06-04T12:55:02.162Z,120
2017-06-04T12:56:16.798Z,80
2017-06-04T12:57:02.207Z,70
2017-06-04T12:58:02.235Z,65
2017-06-04T12:59:01.957Z,70
2017-06-04T13:00:02.338Z,65
2017-06-04T13:01:01.735Z,70
2017-06-04T13:02:02.332Z,75
2017-06-04T13:03:02.056Z,80
2017-06-04T13:04:02.385Z,80
2017-06-04T13:05:17.027Z,70
2017-06-04T13:06:02.438Z,70
2017-06-04T13:07:02.462Z,75
2017-06-04T13:09:02.511Z,95
2017-06-04T13:11:02.261Z,95
2017-06-04T13:12:02.593Z,100
2017-06-04T13:13:02.614Z,110
2017-06-04T13:14:02.639Z,110
2017-06-04T13:15:02.678Z,130
2017-06-04T13:16:02.739Z,160
2017-06-04T13:17:02.718Z,205
2017-06-04T13:18:31.975Z,235
2017-06-04T13:19:02.765Z,235
2017-06-04T13:20:02.490Z,250
2017-06-04T13:22:02.846Z,245
2017-06-04T13:23:02.564Z,240
2017-06-04T13:24:02.595Z,225
2017-06-04T13:25:02.925Z,205
2017-06-04T13:26:02.944Z,200
2017-06-04T13:29:03.024Z,140
2017-06-04T13:30:02.744Z,125
2017-06-04T13:31:17.722Z,110
2017-06-04T13:32:03.147Z,105
2017-06-04T13:33:32.362Z,95
2017-06-04T13:34:03.152Z,90
2017-06-04T13:35:02.872Z,100
2017-06-04T13:36:02.902Z,110
2017-06-04T13:37:17.596Z,110
2017-06-04T13:38:02.951Z,110
2017-06-04T13:39:03.280Z,120
2017-06-04T13:40:03.006Z,125
2017-06-04T13:41:03.034Z,150
2017-06-04T13:42:02.753Z,190
2017-06-04T13:43:03.083Z,195
2017-06-04T13:44:03.154Z,195
2017-06-04T13:45:03.134Z,175
2017-06-04T13:46:17.776Z,165
2017-06-04T13:47:03.190Z,165
2017-06-04T13:48:03.218Z,170
2017-06-04T13:49:03.540Z,160
2017-06-04T13:50:17.885Z,150
2017-06-04T13:51:18.212Z,140
2017-06-04T13:52:03.620Z,140
2017-06-04T13:53:18.262Z,130
2017-06-04T13:54:03.669Z,120
2017-06-04T13:55:03.086Z,105
2017-06-04T13:57:03.750Z,110
2017-06-04T13:58:03.475Z,220
2017-06-04T13:59:03.192Z,205
2017-06-04T14:00:03.546Z,235
2017-06-04T14:01:03.297Z,290
2017-06-04T14:02:03.575Z,255
2017-06-04T14:03:03.602Z,265
2017-06-04T14:04:03.628Z,305
2017-06-04T14:05:03.653Z,270
2017-06-04T14:06:04.296Z,200
2017-06-04T14:07:04.008Z,195
2017-06-04T14:08:18.375Z,185
2017-06-04T14:09:18.679Z,170
2017-06-04T14:10:03.788Z,160
2017-06-04T14:11:04.114Z,165
2017-06-04T14:12:04.443Z,175
2017-06-04T14:13:18.788Z,160
2017-06-04T14:14:03.885Z,145
2017-06-04T14:15:03.916Z,130
2017-06-04T14:16:04.244Z,135
2017-06-04T14:17:18.584Z,100
2017-06-04T14:18:03.994Z,85
2017-06-04T14:19:04.323Z,70
2017-06-04T14:20:04.349Z,75
2017-06-04T14:21:04.070Z,80
2017-06-04T14:22:04.437Z,80
2017-06-04T14:23:04.429Z,75
2017-06-04T14:24:19.072Z,65
2017-06-04T14:25:04.479Z,65
2017-06-04T14:27:04.530Z,100
2017-06-04T14:28:19.181Z,135
2017-06-04T14:29:04.585Z,145
2017-06-04T14:30:04.620Z,150
2017-06-04T14:31:19.256Z,150
2017-06-04T14:32:04.662Z,150
2017-06-04T14:33:04.383Z,175
2017-06-04T14:34:19.329Z,190
2017-06-04T14:35:04.796Z,195
2017-06-04T14:36:04.765Z,185
2017-06-04T14:37:19.407Z,160
2017-06-04T14:38:04.821Z,140
2017-06-04T14:39:04.537Z,105
2017-06-04T14:40:19.486Z,90
2017-06-04T14:41:04.895Z,80
2017-06-04T14:42:04.646Z,65
2017-06-04T14:43:04.948Z,65
2017-06-04T14:44:04.974Z,65
2017-06-04T14:45:04.998Z,60
2017-06-04T14:46:05.028Z,80
2017-06-04T14:47:04.749Z,90
2017-06-04T14:48:05.077Z,95
2017-06-04T14:49:05.103Z,100
2017-06-04T14:50:19.752Z,110
2017-06-04T14:51:19.774Z,115
2017-06-04T14:52:05.181Z,120
2017-06-04T14:53:34.443Z,125
2017-06-04T14:54:05.237Z,125
2017-06-04T14:55:04.959Z,130
2017-06-04T14:56:19.900Z,135
2017-06-04T14:57:05.612Z,135
2017-06-04T14:58:05.336Z,130
2017-06-04T14:59:05.360Z,125
2017-06-04T15:00:05.150Z,120
2017-06-04T15:01:05.463Z,125
2017-06-04T15:02:05.436Z,115
2017-06-04T15:03:05.164Z,110
2017-06-04T15:04:05.493Z,110
2017-06-04T15:05:05.219Z,115
2017-06-04T15:06:05.287Z,115
2017-06-04T15:07:34.804Z,100
2017-06-04T15:08:34.830Z,95
2017-06-04T15:09:34.854Z,95
2017-06-04T15:10:20.261Z,100
2017-06-04T15:11:05.673Z,105
2017-06-04T15:12:20.311Z,95